Terminal Aerodrome Forecast
Issued by NWS Sterling, VA

Home | Current Version | Previous Version | Text Only | Print | Product List | Glossary On
Versions: 1 2 3 4 5 6 7 8 9 10 11 12 13 14 15 16 17 18 19 20 21 22 23 24 25 26 27 28 29
000
FTUS41 KLWX 231731
TAFDCA
TAF
KDCA 231731Z 2318/2418 07018G35KT 2SM -RA OVC010 WS020/07040KT
     FM240100 03013KT 1SM -RA OVC008
     FM240300 01011G18KT 2SM -SHRA OVC003
     FM240600 35010KT P6SM OVC008
     FM241200 32011KT P6SM BKN015
     FM241500 32013G21KT P6SM BKN025=

USA.gov is the U.S. government's official web portal to all federal, state and local government web resources and services.